sensor_id;sensor_type;location;lat;lon;timestamp;pressure;altitude;pressure_sealevel;temperature
15062;BMP180;7630;50.306;8.566;2024-01-30T00:00:16;98935.00;;;9.70
15062;BMP180;7630;50.306;8.566;2024-01-30T00:04:17;99060.00;;;9.70
15062;BMP180;7630;50.306;8.566;2024-01-30T00:08:18;99064.00;;;9.30
15062;BMP180;7630;50.306;8.566;2024-01-30T00:12:20;99073.00;;;9.40
15062;BMP180;7630;50.306;8.566;2024-01-30T00:16:22;99061.00;;;9.30
15062;BMP180;7630;50.306;8.566;2024-01-30T00:20:25;99053.00;;;9.10
15062;BMP180;7630;50.306;8.566;2024-01-30T00:24:26;99059.00;;;8.80
15062;BMP180;7630;50.306;8.566;2024-01-30T00:28:27;99059.00;;;8.80
15062;BMP180;7630;50.306;8.566;2024-01-30T00:32:28;99053.00;;;8.60
15062;BMP180;7630;50.306;8.566;2024-01-30T00:36:29;99059.00;;;8.30
15062;BMP180;7630;50.306;8.566;2024-01-30T00:40:31;99052.00;;;8.30
15062;BMP180;7630;50.306;8.566;2024-01-30T00:44:36;99056.00;;;8.30
15062;BMP180;7630;50.306;8.566;2024-01-30T00:48:40;99052.00;;;7.90
15062;BMP180;7630;50.306;8.566;2024-01-30T00:52:41;99055.00;;;8.00
15062;BMP180;7630;50.306;8.566;2024-01-30T00:56:44;99050.00;;;7.70
15062;BMP180;7630;50.306;8.566;2024-01-30T01:00:46;99056.00;;;8.10
15062;BMP180;7630;50.306;8.566;2024-01-30T01:04:47;99050.00;;;8.00
15062;BMP180;7630;50.306;8.566;2024-01-30T01:08:48;99048.00;;;7.90
15062;BMP180;7630;50.306;8.566;2024-01-30T01:12:49;99055.00;;;7.70
15062;BMP180;7630;50.306;8.566;2024-01-30T01:16:50;99052.00;;;7.50
15062;BMP180;7630;50.306;8.566;2024-01-30T01:20:51;99056.00;;;7.70
15062;BMP180;7630;50.306;8.566;2024-01-30T01:24:52;99054.00;;;7.70
15062;BMP180;7630;50.306;8.566;2024-01-30T01:28:53;99051.00;;;7.70
15062;BMP180;7630;50.306;8.566;2024-01-30T01:32:55;99043.00;;;7.60
15062;BMP180;7630;50.306;8.566;2024-01-30T01:36:57;99034.00;;;7.60
15062;BMP180;7630;50.306;8.566;2024-01-30T01:40:58;99039.00;;;7.30
15062;BMP180;7630;50.306;8.566;2024-01-30T01:44:59;99037.00;;;7.60
15062;BMP180;7630;50.306;8.566;2024-01-30T01:49:04;99030.00;;;7.40
15062;BMP180;7630;50.306;8.566;2024-01-30T01:53:07;99034.00;;;7.40
15062;BMP180;7630;50.306;8.566;2024-01-30T01:57:09;99031.00;;;7.30
15062;BMP180;7630;50.306;8.566;2024-01-30T02:01:11;99022.00;;;7.50
15062;BMP180;7630;50.306;8.566;2024-01-30T02:05:14;99025.00;;;7.40
15062;BMP180;7630;50.306;8.566;2024-01-30T02:09:16;99031.00;;;7.30
15062;BMP180;7630;50.306;8.566;2024-01-30T02:13:17;99032.00;;;7.60
15062;BMP180;7630;50.306;8.566;2024-01-30T02:17:18;99022.00;;;7.50
15062;BMP180;7630;50.306;8.566;2024-01-30T02:21:19;99019.00;;;7.30
15062;BMP180;7630;50.306;8.566;2024-01-30T02:25:20;99012.00;;;7.60
15062;BMP180;7630;50.306;8.566;2024-01-30T02:29:24;99029.00;;;7.00
15062;BMP180;7630;50.306;8.566;2024-01-30T02:33:25;99020.00;;;7.40
15062;BMP180;7630;50.306;8.566;2024-01-30T02:37:26;99039.00;;;7.70
15062;BMP180;7630;50.306;8.566;2024-01-30T02:41:28;99018.00;;;7.40
15062;BMP180;7630;50.306;8.566;2024-01-30T02:45:29;99016.00;;;7.70
15062;BMP180;7630;50.306;8.566;2024-01-30T02:49:30;99014.00;;;7.70
15062;BMP180;7630;50.306;8.566;2024-01-30T02:53:31;99014.00;;;7.70
15062;BMP180;7630;50.306;8.566;2024-01-30T02:57:32;99016.00;;;7.80
15062;BMP180;7630;50.306;8.566;2024-01-30T03:01:33;99012.00;;;7.90
15062;BMP180;7630;50.306;8.566;2024-01-30T03:05:37;99010.00;;;7.70
15062;BMP180;7630;50.306;8.566;2024-01-30T03:09:38;99004.00;;;7.30
15062;BMP180;7630;50.306;8.566;2024-01-30T03:13:39;99001.00;;;7.10
15062;BMP180;7630;50.306;8.566;2024-01-30T03:17:41;99002.00;;;7.00
15062;BMP180;7630;50.306;8.566;2024-01-30T03:25:52;99005.00;;;6.80
15062;BMP180;7630;50.306;8.566;2024-01-30T03:29:53;99006.00;;;6.90
15062;BMP180;7630;50.306;8.566;2024-01-30T03:33:54;99000.00;;;6.80
15062;BMP180;7630;50.306;8.566;2024-01-30T03:37:55;99007.00;;;6.70
15062;BMP180;7630;50.306;8.566;2024-01-30T03:41:56;99002.00;;;6.90
15062;BMP180;7630;50.306;8.566;2024-01-30T03:45:58;99001.00;;;6.80
15062;BMP180;7630;50.306;8.566;2024-01-30T03:49:59;98996.00;;;6.90
15062;BMP180;7630;50.306;8.566;2024-01-30T03:54:00;98987.00;;;7.00
15062;BMP180;7630;50.306;8.566;2024-01-30T03:58:01;98997.00;;;7.00
15062;BMP180;7630;50.306;8.566;2024-01-30T04:02:02;98994.00;;;7.10
15062;BMP180;7630;50.306;8.566;2024-01-30T04:06:04;98980.00;;;6.90
15062;BMP180;7630;50.306;8.566;2024-01-30T04:10:06;98986.00;;;6.80
15062;BMP180;7630;50.306;8.566;2024-01-30T04:14:08;98990.00;;;6.80
15062;BMP180;7630;50.306;8.566;2024-01-30T04:18:09;98993.00;;;6.70
15062;BMP180;7630;50.306;8.566;2024-01-30T04:22:10;98990.00;;;6.50
15062;BMP180;7630;50.306;8.566;2024-01-30T04:26:12;98982.00;;;6.70
15062;BMP180;7630;50.306;8.566;2024-01-30T04:30:13;98981.00;;;6.60
15062;BMP180;7630;50.306;8.566;2024-01-30T04:34:14;98982.00;;;6.70
15062;BMP180;7630;50.306;8.566;2024-01-30T04:38:15;98976.00;;;6.90
15062;BMP180;7630;50.306;8.566;2024-01-30T04:42:17;98985.00;;;6.90
15062;BMP180;7630;50.306;8.566;2024-01-30T04:46:18;98982.00;;;6.90
15062;BMP180;7630;50.306;8.566;2024-01-30T04:50:19;98982.00;;;6.70
15062;BMP180;7630;50.306;8.566;2024-01-30T04:54:20;98981.00;;;6.80
15062;BMP180;7630;50.306;8.566;2024-01-30T04:58:21;98988.00;;;6.80
15062;BMP180;7630;50.306;8.566;2024-01-30T05:02:22;98989.00;;;6.70
15062;BMP180;7630;50.306;8.566;2024-01-30T05:06:27;98983.00;;;6.50
15062;BMP180;7630;50.306;8.566;2024-01-30T05:10:28;98992.00;;;6.60
15062;BMP180;7630;50.306;8.566;2024-01-30T05:14:30;98993.00;;;6.80
15062;BMP180;7630;50.306;8.566;2024-01-30T05:18:31;98987.00;;;6.70
15062;BMP180;7630;50.306;8.566;2024-01-30T05:22:32;98989.00;;;6.80
15062;BMP180;7630;50.306;8.566;2024-01-30T05:26:33;98992.00;;;7.10
15062;BMP180;7630;50.306;8.566;2024-01-30T05:30:35;98998.00;;;7.00
15062;BMP180;7630;50.306;8.566;2024-01-30T05:34:36;98994.00;;;7.20
15062;BMP180;7630;50.306;8.566;2024-01-30T05:38:37;98991.00;;;7.10
15062;BMP180;7630;50.306;8.566;2024-01-30T05:42:38;98994.00;;;7.00
15062;BMP180;7630;50.306;8.566;2024-01-30T05:46:39;98995.00;;;7.20
15062;BMP180;7630;50.306;8.566;2024-01-30T05:50:40;99002.00;;;7.20
15062;BMP180;7630;50.306;8.566;2024-01-30T05:54:41;98998.00;;;7.20
15062;BMP180;7630;50.306;8.566;2024-01-30T05:58:42;98999.00;;;5.80
15062;BMP180;7630;50.306;8.566;2024-01-30T06:02:44;99005.00;;;6.10
15062;BMP180;7630;50.306;8.566;2024-01-30T06:06:45;99004.00;;;6.00
15062;BMP180;7630;50.306;8.566;2024-01-30T06:10:46;99014.00;;;6.70
15062;BMP180;7630;50.306;8.566;2024-01-30T06:14:48;99003.00;;;5.40
15062;BMP180;7630;50.306;8.566;2024-01-30T06:18:49;99001.00;;;6.50
15062;BMP180;7630;50.306;8.566;2024-01-30T06:22:51;99012.00;;;6.70
15062;BMP180;7630;50.306;8.566;2024-01-30T06:26:52;99001.00;;;6.80
15062;BMP180;7630;50.306;8.566;2024-01-30T06:30:53;99005.00;;;6.20
15062;BMP180;7630;50.306;8.566;2024-01-30T06:34:54;98999.00;;;5.70
15062;BMP180;7630;50.306;8.566;2024-01-30T06:38:55;99004.00;;;6.10
15062;BMP180;7630;50.306;8.566;2024-01-30T06:42:56;98989.00;;;5.80
15062;BMP180;7630;50.306;8.566;2024-01-30T06:46:57;98999.00;;;6.60
15062;BMP180;7630;50.306;8.566;2024-01-30T06:50:58;98996.00;;;6.50
15062;BMP180;7630;50.306;8.566;2024-01-30T06:54:59;98991.00;;;6.70
15062;BMP180;7630;50.306;8.566;2024-01-30T06:59:00;98994.00;;;6.40
15062;BMP180;7630;50.306;8.566;2024-01-30T07:03:01;99005.00;;;7.50
15062;BMP180;7630;50.306;8.566;2024-01-30T07:07:03;98996.00;;;8.20
15062;BMP180;7630;50.306;8.566;2024-01-30T07:11:06;98998.00;;;8.20
15062;BMP180;7630;50.306;8.566;2024-01-30T07:15:08;98998.00;;;8.30
15062;BMP180;7630;50.306;8.566;2024-01-30T07:19:10;98993.00;;;7.70
15062;BMP180;7630;50.306;8.566;2024-01-30T07:23:12;98993.00;;;7.30
15062;BMP180;7630;50.306;8.566;2024-01-30T07:27:14;98994.00;;;7.90
15062;BMP180;7630;50.306;8.566;2024-01-30T07:31:16;98999.00;;;7.70
15062;BMP180;7630;50.306;8.566;2024-01-30T07:35:17;98996.00;;;6.20
15062;BMP180;7630;50.306;8.566;2024-01-30T07:39:19;99003.00;;;7.50
15062;BMP180;7630;50.306;8.566;2024-01-30T07:43:20;98998.00;;;7.20
15062;BMP180;7630;50.306;8.566;2024-01-30T07:47:21;99001.00;;;7.80
15062;BMP180;7630;50.306;8.566;2024-01-30T07:51:22;99007.00;;;9.00
15062;BMP180;7630;50.306;8.566;2024-01-30T07:55:24;99000.00;;;9.20
15062;BMP180;7630;50.306;8.566;2024-01-30T07:59:27;99007.00;;;8.70
15062;BMP180;7630;50.306;8.566;2024-01-30T08:03:28;99004.00;;;8.90
15062;BMP180;7630;50.306;8.566;2024-01-30T08:07:29;99010.00;;;8.60
15062;BMP180;7630;50.306;8.566;2024-01-30T08:11:31;99017.00;;;8.90
15062;BMP180;7630;50.306;8.566;2024-01-30T08:15:32;99017.00;;;9.50
15062;BMP180;7630;50.306;8.566;2024-01-30T08:19:33;99023.00;;;10.20
15062;BMP180;7630;50.306;8.566;2024-01-30T08:23:35;99015.00;;;10.20
15062;BMP180;7630;50.306;8.566;2024-01-30T08:27:36;99016.00;;;10.20
15062;BMP180;7630;50.306;8.566;2024-01-30T08:31:39;99018.00;;;10.40
15062;BMP180;7630;50.306;8.566;2024-01-30T08:35:40;99028.00;;;10.50
15062;BMP180;7630;50.306;8.566;2024-01-30T08:39:42;99016.00;;;10.40
15062;BMP180;7630;50.306;8.566;2024-01-30T08:43:44;99027.00;;;9.80
15062;BMP180;7630;50.306;8.566;2024-01-30T08:47:45;99024.00;;;9.90
15062;BMP180;7630;50.306;8.566;2024-01-30T08:51:46;99023.00;;;10.40
15062;BMP180;7630;50.306;8.566;2024-01-30T08:55:48;99023.00;;;10.80
15062;BMP180;7630;50.306;8.566;2024-01-30T08:59:49;99033.00;;;10.60
15062;BMP180;7630;50.306;8.566;2024-01-30T09:03:50;99029.00;;;11.30
15062;BMP180;7630;50.306;8.566;2024-01-30T09:07:51;99032.00;;;11.50
15062;BMP180;7630;50.306;8.566;2024-01-30T09:11:53;99029.00;;;11.40
15062;BMP180;7630;50.306;8.566;2024-01-30T09:15:54;99027.00;;;11.80
15062;BMP180;7630;50.306;8.566;2024-01-30T09:19:56;99032.00;;;12.00
15062;BMP180;7630;50.306;8.566;2024-01-30T09:24:02;99034.00;;;11.50
15062;BMP180;7630;50.306;8.566;2024-01-30T09:28:05;99028.00;;;11.80
15062;BMP180;7630;50.306;8.566;2024-01-30T09:32:06;99033.00;;;11.80
15062;BMP180;7630;50.306;8.566;2024-01-30T09:36:10;99041.00;;;11.60
15062;BMP180;7630;50.306;8.566;2024-01-30T09:40:11;99042.00;;;11.80
15062;BMP180;7630;50.306;8.566;2024-01-30T09:44:13;99059.00;;;12.00
15062;BMP180;7630;50.306;8.566;2024-01-30T09:48:16;99056.00;;;11.60
15062;BMP180;7630;50.306;8.566;2024-01-30T09:52:17;99055.00;;;11.30
15062;BMP180;7630;50.306;8.566;2024-01-30T09:56:19;99048.00;;;10.60
15062;BMP180;7630;50.306;8.566;2024-01-30T10:00:21;99054.00;;;10.60
15062;BMP180;7630;50.306;8.566;2024-01-30T10:04:24;99041.00;;;11.80
15062;BMP180;7630;50.306;8.566;2024-01-30T10:08:26;99047.00;;;12.30
15062;BMP180;7630;50.306;8.566;2024-01-30T10:12:28;99038.00;;;12.80
15062;BMP180;7630;50.306;8.566;2024-01-30T10:16:29;99040.00;;;12.40
15062;BMP180;7630;50.306;8.566;2024-01-30T10:20:31;99033.00;;;12.00
15062;BMP180;7630;50.306;8.566;2024-01-30T10:24:34;99029.00;;;12.20
15062;BMP180;7630;50.306;8.566;2024-01-30T10:28:35;99023.00;;;11.60
15062;BMP180;7630;50.306;8.566;2024-01-30T10:32:37;99035.00;;;11.50
15062;BMP180;7630;50.306;8.566;2024-01-30T10:36:42;99016.00;;;12.00
15062;BMP180;7630;50.306;8.566;2024-01-30T10:40:47;99016.00;;;11.80
15062;BMP180;7630;50.306;8.566;2024-01-30T10:49:10;99036.00;;;11.90
15062;BMP180;7630;50.306;8.566;2024-01-30T10:53:12;99024.00;;;11.60
15062;BMP180;7630;50.306;8.566;2024-01-30T10:57:14;99034.00;;;12.10
15062;BMP180;7630;50.306;8.566;2024-01-30T11:01:17;99027.00;;;11.90
15062;BMP180;7630;50.306;8.566;2024-01-30T11:05:24;99041.00;;;11.80
15062;BMP180;7630;50.306;8.566;2024-01-30T11:09:32;99039.00;;;11.90
15062;BMP180;7630;50.306;8.566;2024-01-30T11:13:36;99040.00;;;12.40
15062;BMP180;7630;50.306;8.566;2024-01-30T11:17:51;99039.00;;;12.10
15062;BMP180;7630;50.306;8.566;2024-01-30T11:21:54;99038.00;;;12.40
15062;BMP180;7630;50.306;8.566;2024-01-30T11:25:56;99053.00;;;13.10
15062;BMP180;7630;50.306;8.566;2024-01-30T11:30:02;99039.00;;;12.50
15062;BMP180;7630;50.306;8.566;2024-01-30T11:34:03;99034.00;;;13.20
15062;BMP180;7630;50.306;8.566;2024-01-30T11:38:07;99025.00;;;12.80
15062;BMP180;7630;50.306;8.566;2024-01-30T11:42:08;99028.00;;;13.20
15062;BMP180;7630;50.306;8.566;2024-01-30T11:46:10;99023.00;;;13.70
15062;BMP180;7630;50.306;8.566;2024-01-30T11:50:11;99032.00;;;12.30
15062;BMP180;7630;50.306;8.566;2024-01-30T11:54:13;99028.00;;;11.20
15062;BMP180;7630;50.306;8.566;2024-01-30T11:58:15;99019.00;;;11.50
15062;BMP180;7630;50.306;8.566;2024-01-30T12:02:16;99031.00;;;12.80
15062;BMP180;7630;50.306;8.566;2024-01-30T12:06:18;99027.00;;;13.00
15062;BMP180;7630;50.306;8.566;2024-01-30T12:10:20;99028.00;;;13.30
15062;BMP180;7630;50.306;8.566;2024-01-30T12:14:22;99022.00;;;13.20
15062;BMP180;7630;50.306;8.566;2024-01-30T12:18:25;99014.00;;;13.40
15062;BMP180;7630;50.306;8.566;2024-01-30T12:22:26;99014.00;;;13.30
15062;BMP180;7630;50.306;8.566;2024-01-30T12:26:28;99003.00;;;13.50
15062;BMP180;7630;50.306;8.566;2024-01-30T12:30:29;99009.00;;;13.90
15062;BMP180;7630;50.306;8.566;2024-01-30T12:34:31;99006.00;;;13.70
15062;BMP180;7630;50.306;8.566;2024-01-30T12:38:34;99003.00;;;14.40
15062;BMP180;7630;50.306;8.566;2024-01-30T12:42:35;98865.00;;;12.10
15062;BMP180;7630;50.306;8.566;2024-01-30T12:46:36;99001.00;;;12.60
15062;BMP180;7630;50.306;8.566;2024-01-30T12:50:38;98998.00;;;13.70
15062;BMP180;7630;50.306;8.566;2024-01-30T12:54:39;98987.00;;;13.80
15062;BMP180;7630;50.306;8.566;2024-01-30T12:58:40;98981.00;;;14.00
15062;BMP180;7630;50.306;8.566;2024-01-30T13:02:43;98982.00;;;14.30
15062;BMP180;7630;50.306;8.566;2024-01-30T13:06:45;98981.00;;;14.10
15062;BMP180;7630;50.306;8.566;2024-01-30T13:10:47;98988.00;;;14.20
15062;BMP180;7630;50.306;8.566;2024-01-30T13:14:50;98980.00;;;13.80
15062;BMP180;7630;50.306;8.566;2024-01-30T13:18:51;98973.00;;;13.80
15062;BMP180;7630;50.306;8.566;2024-01-30T13:22:52;98974.00;;;14.30
15062;BMP180;7630;50.306;8.566;2024-01-30T13:26:54;98979.00;;;14.30
15062;BMP180;7630;50.306;8.566;2024-01-30T13:30:55;98990.00;;;14.50
15062;BMP180;7630;50.306;8.566;2024-01-30T13:34:56;98989.00;;;13.60
15062;BMP180;7630;50.306;8.566;2024-01-30T13:38:58;98981.00;;;13.50
15062;BMP180;7630;50.306;8.566;2024-01-30T13:42:59;98985.00;;;13.40
15062;BMP180;7630;50.306;8.566;2024-01-30T13:47:00;99008.00;;;13.20
15062;BMP180;7630;50.306;8.566;2024-01-30T13:51:02;99004.00;;;13.10
15062;BMP180;7630;50.306;8.566;2024-01-30T13:55:03;99006.00;;;13.60
15062;BMP180;7630;50.306;8.566;2024-01-30T13:59:05;99001.00;;;12.90
15062;BMP180;7630;50.306;8.566;2024-01-30T14:03:06;99003.00;;;12.30
15062;BMP180;7630;50.306;8.566;2024-01-30T14:07:07;98998.00;;;12.70
15062;BMP180;7630;50.306;8.566;2024-01-30T14:11:09;99011.00;;;12.00
15062;BMP180;7630;50.306;8.566;2024-01-30T14:15:10;99008.00;;;13.40
15062;BMP180;7630;50.306;8.566;2024-01-30T14:19:15;99008.00;;;12.00
15062;BMP180;7630;50.306;8.566;2024-01-30T14:23:17;99014.00;;;11.60
15062;BMP180;7630;50.306;8.566;2024-01-30T14:27:18;99013.00;;;12.40
15062;BMP180;7630;50.306;8.566;2024-01-30T14:31:19;99011.00;;;12.20
15062;BMP180;7630;50.306;8.566;2024-01-30T14:35:21;99003.00;;;11.50
15062;BMP180;7630;50.306;8.566;2024-01-30T14:39:23;99018.00;;;12.90
15062;BMP180;7630;50.306;8.566;2024-01-30T14:43:24;99014.00;;;13.00
15062;BMP180;7630;50.306;8.566;2024-01-30T14:47:25;99037.00;;;13.40
15062;BMP180;7630;50.306;8.566;2024-01-30T14:51:27;99040.00;;;13.00
15062;BMP180;7630;50.306;8.566;2024-01-30T14:55:30;99023.00;;;13.40
15062;BMP180;7630;50.306;8.566;2024-01-30T14:59:31;99028.00;;;13.10
15062;BMP180;7630;50.306;8.566;2024-01-30T15:03:32;99030.00;;;12.90
15062;BMP180;7630;50.306;8.566;2024-01-30T15:07:34;99043.00;;;13.10
15062;BMP180;7630;50.306;8.566;2024-01-30T15:11:37;99048.00;;;13.80
15062;BMP180;7630;50.306;8.566;2024-01-30T15:15:38;99035.00;;;13.00
15062;BMP180;7630;50.306;8.566;2024-01-30T15:19:39;99034.00;;;13.30
15062;BMP180;7630;50.306;8.566;2024-01-30T15:23:40;99053.00;;;13.20
15062;BMP180;7630;50.306;8.566;2024-01-30T15:27:41;99049.00;;;13.20
15062;BMP180;7630;50.306;8.566;2024-01-30T15:31:42;99052.00;;;13.50
15062;BMP180;7630;50.306;8.566;2024-01-30T15:35:44;99047.00;;;13.10
15062;BMP180;7630;50.306;8.566;2024-01-30T15:39:45;99056.00;;;12.80
15062;BMP180;7630;50.306;8.566;2024-01-30T15:43:46;99057.00;;;12.70
15062;BMP180;7630;50.306;8.566;2024-01-30T15:47:47;99055.00;;;11.10
15062;BMP180;7630;50.306;8.566;2024-01-30T15:51:48;99053.00;;;11.40
15062;BMP180;7630;50.306;8.566;2024-01-30T15:55:49;99068.00;;;12.80
15062;BMP180;7630;50.306;8.566;2024-01-30T15:59:50;99069.00;;;11.70
15062;BMP180;7630;50.306;8.566;2024-01-30T16:03:51;99067.00;;;11.50
15062;BMP180;7630;50.306;8.566;2024-01-30T16:07:52;99069.00;;;12.30
15062;BMP180;7630;50.306;8.566;2024-01-30T16:11:54;99065.00;;;12.10
15062;BMP180;7630;50.306;8.566;2024-01-30T16:15:55;99076.00;;;12.80
15062;BMP180;7630;50.306;8.566;2024-01-30T16:19:56;99071.00;;;11.60
15062;BMP180;7630;50.306;8.566;2024-01-30T16:23:57;99076.00;;;12.50
15062;BMP180;7630;50.306;8.566;2024-01-30T16:27:59;99080.00;;;12.10
15062;BMP180;7630;50.306;8.566;2024-01-30T16:32:00;99074.00;;;12.30
15062;BMP180;7630;50.306;8.566;2024-01-30T16:36:01;99081.00;;;12.70
15062;BMP180;7630;50.306;8.566;2024-01-30T16:40:02;99085.00;;;12.10
15062;BMP180;7630;50.306;8.566;2024-01-30T16:44:05;99083.00;;;12.60
15062;BMP180;7630;50.306;8.566;2024-01-30T16:48:06;99094.00;;;12.80
15062;BMP180;7630;50.306;8.566;2024-01-30T16:52:08;99094.00;;;11.80
15062;BMP180;7630;50.306;8.566;2024-01-30T16:56:09;99087.00;;;10.50
15062;BMP180;7630;50.306;8.566;2024-01-30T17:00:11;99091.00;;;11.00
15062;BMP180;7630;50.306;8.566;2024-01-30T17:04:15;99099.00;;;11.70
15062;BMP180;7630;50.306;8.566;2024-01-30T17:08:17;99110.00;;;12.10
15062;BMP180;7630;50.306;8.566;2024-01-30T17:12:18;99115.00;;;12.20
15062;BMP180;7630;50.306;8.566;2024-01-30T17:16:19;99122.00;;;12.70
15062;BMP180;7630;50.306;8.566;2024-01-30T17:20:23;99129.00;;;12.70
15062;BMP180;7630;50.306;8.566;2024-01-30T17:24:24;99133.00;;;12.80
15062;BMP180;7630;50.306;8.566;2024-01-30T17:28:27;99129.00;;;11.00
15062;BMP180;7630;50.306;8.566;2024-01-30T17:32:28;99144.00;;;11.40
15062;BMP180;7630;50.306;8.566;2024-01-30T17:36:30;99147.00;;;10.90
15062;BMP180;7630;50.306;8.566;2024-01-30T17:40:31;99163.00;;;12.10
15062;BMP180;7630;50.306;8.566;2024-01-30T17:44:33;99166.00;;;12.10
15062;BMP180;7630;50.306;8.566;2024-01-30T17:48:36;99170.00;;;12.90
15062;BMP180;7630;50.306;8.566;2024-01-30T17:52:37;99167.00;;;11.70
15062;BMP180;7630;50.306;8.566;2024-01-30T17:56:39;99171.00;;;12.80
15062;BMP180;7630;50.306;8.566;2024-01-30T18:00:40;99168.00;;;12.50
15062;BMP180;7630;50.306;8.566;2024-01-30T18:04:41;99174.00;;;12.70
15062;BMP180;7630;50.306;8.566;2024-01-30T18:08:43;99178.00;;;11.80
15062;BMP180;7630;50.306;8.566;2024-01-30T18:12:45;99189.00;;;12.40
15062;BMP180;7630;50.306;8.566;2024-01-30T18:16:46;99189.00;;;12.00
15062;BMP180;7630;50.306;8.566;2024-01-30T18:20:47;99208.00;;;12.40
15062;BMP180;7630;50.306;8.566;2024-01-30T18:24:49;99192.00;;;13.20
15062;BMP180;7630;50.306;8.566;2024-01-30T18:28:50;99191.00;;;13.50
15062;BMP180;7630;50.306;8.566;2024-01-30T18:32:51;99192.00;;;13.60
15062;BMP180;7630;50.306;8.566;2024-01-30T18:36:53;99194.00;;;13.40
15062;BMP180;7630;50.306;8.566;2024-01-30T18:40:54;99181.00;;;13.60
15062;BMP180;7630;50.306;8.566;2024-01-30T18:44:56;99197.00;;;13.30
15062;BMP180;7630;50.306;8.566;2024-01-30T18:48:57;99197.00;;;13.10
15062;BMP180;7630;50.306;8.566;2024-01-30T18:52:58;99208.00;;;13.10
15062;BMP180;7630;50.306;8.566;2024-01-30T18:56:59;99215.00;;;13.20
15062;BMP180;7630;50.306;8.566;2024-01-30T19:01:00;99200.00;;;12.90
15062;BMP180;7630;50.306;8.566;2024-01-30T19:05:01;99217.00;;;12.90
15062;BMP180;7630;50.306;8.566;2024-01-30T19:09:03;99213.00;;;13.40
15062;BMP180;7630;50.306;8.566;2024-01-30T19:13:09;99208.00;;;12.80
15062;BMP180;7630;50.306;8.566;2024-01-30T19:17:10;99209.00;;;12.90
15062;BMP180;7630;50.306;8.566;2024-01-30T19:21:11;99214.00;;;13.20
15062;BMP180;7630;50.306;8.566;2024-01-30T19:25:12;99216.00;;;13.00
15062;BMP180;7630;50.306;8.566;2024-01-30T19:29:14;99222.00;;;12.90
15062;BMP180;7630;50.306;8.566;2024-01-30T19:33:15;99217.00;;;13.10
15062;BMP180;7630;50.306;8.566;2024-01-30T19:37:16;99096.00;;;12.90
15062;BMP180;7630;50.306;8.566;2024-01-30T19:41:17;99240.00;;;12.10
15062;BMP180;7630;50.306;8.566;2024-01-30T19:45:18;99236.00;;;11.60
15062;BMP180;7630;50.306;8.566;2024-01-30T19:49:20;99232.00;;;11.30
15062;BMP180;7630;50.306;8.566;2024-01-30T19:53:21;99252.00;;;11.50
15062;BMP180;7630;50.306;8.566;2024-01-30T19:57:23;99231.00;;;12.00
15062;BMP180;7630;50.306;8.566;2024-01-30T20:01:24;99234.00;;;12.30
15062;BMP180;7630;50.306;8.566;2024-01-30T20:05:25;99224.00;;;12.30
15062;BMP180;7630;50.306;8.566;2024-01-30T20:09:26;99230.00;;;11.70
15062;BMP180;7630;50.306;8.566;2024-01-30T20:13:28;99234.00;;;12.30
15062;BMP180;7630;50.306;8.566;2024-01-30T20:17:29;99232.00;;;12.30
15062;BMP180;7630;50.306;8.566;2024-01-30T20:21:33;99234.00;;;12.40
15062;BMP180;7630;50.306;8.566;2024-01-30T20:25:34;99241.00;;;12.80
15062;BMP180;7630;50.306;8.566;2024-01-30T20:29:36;99241.00;;;12.40
15062;BMP180;7630;50.306;8.566;2024-01-30T20:33:37;99247.00;;;12.40
15062;BMP180;7630;50.306;8.566;2024-01-30T20:37:39;99244.00;;;12.60
15062;BMP180;7630;50.306;8.566;2024-01-30T20:41:41;99246.00;;;12.90
15062;BMP180;7630;50.306;8.566;2024-01-30T20:45:43;99260.00;;;12.60
15062;BMP180;7630;50.306;8.566;2024-01-30T20:49:44;99259.00;;;13.30
15062;BMP180;7630;50.306;8.566;2024-01-30T20:53:46;99263.00;;;12.70
15062;BMP180;7630;50.306;8.566;2024-01-30T20:57:47;99274.00;;;12.50
15062;BMP180;7630;50.306;8.566;2024-01-30T21:01:48;99270.00;;;12.90
15062;BMP180;7630;50.306;8.566;2024-01-30T21:05:49;99265.00;;;13.00
15062;BMP180;7630;50.306;8.566;2024-01-30T21:09:50;99268.00;;;13.80
15062;BMP180;7630;50.306;8.566;2024-01-30T21:13:52;99273.00;;;13.60
15062;BMP180;7630;50.306;8.566;2024-01-30T21:17:53;99272.00;;;12.90
15062;BMP180;7630;50.306;8.566;2024-01-30T21:21:54;99283.00;;;12.80
15062;BMP180;7630;50.306;8.566;2024-01-30T21:25:56;99297.00;;;10.80
15062;BMP180;7630;50.306;8.566;2024-01-30T21:29:58;99290.00;;;9.70
15062;BMP180;7630;50.306;8.566;2024-01-30T21:34:00;99310.00;;;9.80
15062;BMP180;7630;50.306;8.566;2024-01-30T21:38:01;99310.00;;;10.70
15062;BMP180;7630;50.306;8.566;2024-01-30T21:42:04;99318.00;;;10.60
15062;BMP180;7630;50.306;8.566;2024-01-30T21:46:05;99308.00;;;10.90
15062;BMP180;7630;50.306;8.566;2024-01-30T21:50:08;99311.00;;;11.60
15062;BMP180;7630;50.306;8.566;2024-01-30T21:54:09;99314.00;;;12.00
15062;BMP180;7630;50.306;8.566;2024-01-30T21:58:10;99319.00;;;11.90
15062;BMP180;7630;50.306;8.566;2024-01-30T22:02:12;99325.00;;;11.60
15062;BMP180;7630;50.306;8.566;2024-01-30T22:06:13;99323.00;;;11.80
15062;BMP180;7630;50.306;8.566;2024-01-30T22:10:14;99323.00;;;11.90
15062;BMP180;7630;50.306;8.566;2024-01-30T22:14:16;99332.00;;;11.90
15062;BMP180;7630;50.306;8.566;2024-01-30T22:18:17;99325.00;;;12.00
15062;BMP180;7630;50.306;8.566;2024-01-30T22:22:18;99331.00;;;11.10
15062;BMP180;7630;50.306;8.566;2024-01-30T22:26:19;99329.00;;;11.70
15062;BMP180;7630;50.306;8.566;2024-01-30T22:30:20;99323.00;;;12.10
15062;BMP180;7630;50.306;8.566;2024-01-30T22:34:22;99323.00;;;12.10
15062;BMP180;7630;50.306;8.566;2024-01-30T22:38:23;99322.00;;;12.40
15062;BMP180;7630;50.306;8.566;2024-01-30T22:42:24;99336.00;;;12.80
15062;BMP180;7630;50.306;8.566;2024-01-30T22:46:25;99338.00;;;12.60
15062;BMP180;7630;50.306;8.566;2024-01-30T22:50:26;99334.00;;;12.80
15062;BMP180;7630;50.306;8.566;2024-01-30T22:54:27;99342.00;;;12.90
15062;BMP180;7630;50.306;8.566;2024-01-30T22:58:28;99348.00;;;12.30
15062;BMP180;7630;50.306;8.566;2024-01-30T23:02:29;99359.00;;;11.70
15062;BMP180;7630;50.306;8.566;2024-01-30T23:06:30;99348.00;;;12.30
15062;BMP180;7630;50.306;8.566;2024-01-30T23:10:32;99360.00;;;12.70
15062;BMP180;7630;50.306;8.566;2024-01-30T23:14:33;99355.00;;;13.00
15062;BMP180;7630;50.306;8.566;2024-01-30T23:18:34;99359.00;;;12.60
15062;BMP180;7630;50.306;8.566;2024-01-30T23:22:35;99364.00;;;12.80
15062;BMP180;7630;50.306;8.566;2024-01-30T23:26:41;99370.00;;;12.80
15062;BMP180;7630;50.306;8.566;2024-01-30T23:30:42;99368.00;;;12.80
15062;BMP180;7630;50.306;8.566;2024-01-30T23:34:44;99364.00;;;12.80
15062;BMP180;7630;50.306;8.566;2024-01-30T23:38:45;99380.00;;;12.90
15062;BMP180;7630;50.306;8.566;2024-01-30T23:42:46;99387.00;;;12.70
15062;BMP180;7630;50.306;8.566;2024-01-30T23:46:47;99379.00;;;12.70